createdAt,value
2023-05-10T05:30:03.297Z,976.00
2023-05-10T05:31:09.123Z,964.00
2023-05-10T05:32:04.291Z,970.00
2023-05-10T05:33:03.138Z,953.00
2023-05-10T05:34:04.484Z,937.00
2023-05-10T05:35:02.874Z,915.00
2023-05-10T05:36:02.755Z,909.00
2023-05-10T05:37:02.667Z,906.00
2023-05-10T05:38:02.600Z,909.00
2023-05-10T05:39:04.087Z,913.00
2023-05-10T05:40:02.310Z,912.00
2023-05-10T05:41:02.184Z,911.00
2023-05-10T05:42:02.072Z,908.00
2023-05-10T05:43:02.009Z,907.00
2023-05-10T05:44:02.548Z,908.00
2023-05-10T05:45:01.834Z,928.00
2023-05-10T05:46:01.674Z,940.00
2023-05-10T05:47:01.573Z,943.00
2023-05-10T05:48:02.077Z,943.00
2023-05-10T05:49:01.387Z,944.00
2023-05-10T05:50:01.292Z,941.00
2023-05-10T05:51:01.213Z,937.00
2023-05-10T05:52:01.104Z,938.00
2023-05-10T05:53:01.099Z,937.00
2023-05-10T05:54:00.905Z,936.00
2023-05-10T05:55:00.837Z,942.00
2023-05-10T05:56:00.751Z,938.00
2023-05-10T05:57:01.523Z,933.00
2023-05-10T05:58:00.558Z,932.00
2023-05-10T05:59:00.472Z,932.00
2023-05-10T06:00:00.426Z,932.00
2023-05-10T06:01:00.273Z,935.00
2023-05-10T06:02:01.025Z,937.00
2023-05-10T06:03:00.324Z,937.00
2023-05-10T06:04:00.070Z,937.00
2023-05-10T06:04:59.917Z,936.00
2023-05-10T06:05:59.796Z,938.00
2023-05-10T06:07:00.509Z,939.00
2023-05-10T06:07:59.609Z,940.00
2023-05-10T06:08:59.622Z,938.00
2023-05-10T06:09:59.412Z,936.00
2023-05-10T06:11:01.003Z,933.00
2023-05-10T06:11:59.272Z,934.00
2023-05-10T06:12:59.184Z,944.00
2023-05-10T06:13:59.497Z,959.00
2023-05-10T06:14:58.948Z,964.00
2023-05-10T06:15:58.869Z,965.00
2023-05-10T06:16:58.815Z,1016.00
2023-05-10T06:17:58.734Z,1001.00
2023-05-10T06:18:58.557Z,995.00
2023-05-10T06:19:58.485Z,999.00
2023-05-10T06:20:58.373Z,989.00
2023-05-10T06:21:58.252Z,982.00
2023-05-10T06:22:58.173Z,1021.00
2023-05-10T06:23:58.102Z,1027.00
2023-05-10T06:24:58.012Z,1022.00
2023-05-10T06:25:57.928Z,973.00
2023-05-10T06:26:57.851Z,972.00
2023-05-10T06:27:57.756Z,1008.00
2023-05-10T06:28:59.540Z,1049.00
2023-05-10T06:30:09.206Z,1120.00
2023-05-10T06:30:57.451Z,1119.00
2023-05-10T06:31:57.351Z,1047.00
2023-05-10T06:32:57.305Z,968.00
2023-05-10T06:33:57.189Z,941.00
2023-05-10T06:34:57.151Z,907.00
2023-05-10T06:35:57.142Z,851.00
2023-05-10T06:36:56.983Z,840.00
2023-05-10T06:37:56.911Z,769.00
2023-05-10T06:38:58.536Z,745.00
2023-05-10T06:39:56.814Z,703.00
2023-05-10T06:40:56.773Z,702.00
2023-05-10T06:41:56.625Z,699.00
2023-05-10T06:42:56.556Z,694.00
2023-05-10T06:43:56.753Z,680.00
2023-05-10T06:44:56.291Z,674.00
2023-05-10T06:45:56.209Z,659.00
2023-05-10T06:46:57.047Z,646.00
2023-05-10T06:47:56.569Z,644.00
2023-05-10T06:48:55.812Z,641.00
2023-05-10T06:49:55.695Z,639.00
2023-05-10T06:50:56.409Z,636.00
2023-05-10T06:51:55.464Z,632.00
2023-05-10T06:52:55.334Z,624.00
2023-05-10T06:53:55.237Z,620.00
2023-05-10T06:54:55.138Z,616.00
2023-05-10T06:55:54.958Z,603.00
2023-05-10T06:56:54.845Z,597.00
2023-05-10T06:57:54.737Z,592.00
2023-05-10T06:58:54.643Z,584.00
2023-05-10T06:59:54.503Z,582.00
2023-05-10T07:00:54.463Z,581.00
2023-05-10T07:01:54.268Z,575.00
2023-05-10T07:02:54.140Z,575.00
2023-05-10T07:03:54.030Z,572.00
2023-05-10T07:04:53.921Z,578.00
2023-05-10T07:05:54.516Z,579.00
2023-05-10T07:06:54.009Z,580.00
2023-05-10T07:07:53.506Z,578.00
2023-05-10T07:08:53.388Z,577.00
2023-05-10T07:09:53.957Z,579.00
2023-05-10T07:10:53.166Z,580.00
2023-05-10T07:11:53.030Z,577.00
2023-05-10T07:12:52.984Z,576.00
2023-05-10T07:13:52.774Z,573.00
2023-05-10T07:14:52.658Z,567.00
2023-05-10T07:15:52.550Z,629.00
2023-05-10T07:16:54.950Z,678.00
2023-05-10T07:17:53.199Z,730.00
2023-05-10T07:18:52.336Z,767.00
2023-05-10T07:19:52.576Z,765.00
2023-05-10T07:20:52.119Z,765.00
2023-05-10T07:21:51.979Z,742.00
2023-05-10T07:22:51.888Z,719.00
2023-05-10T07:23:51.839Z,648.00
2023-05-10T07:24:51.703Z,622.00
2023-05-10T07:25:51.601Z,617.00
2023-05-10T07:27:02.544Z,619.00
2023-05-10T07:27:51.375Z,621.00
2023-05-10T07:28:51.279Z,622.00
2023-05-10T07:29:51.150Z,619.00
2023-05-10T07:30:51.105Z,614.00
2023-05-10T07:31:50.973Z,600.00
2023-05-10T07:32:50.805Z,589.00
2023-05-10T07:34:01.603Z,585.00
2023-05-10T07:34:50.522Z,583.00
2023-05-10T07:35:50.441Z,584.00
2023-05-10T07:36:51.083Z,590.00
2023-05-10T07:37:57.156Z,589.00
2023-05-10T07:38:50.025Z,591.00
2023-05-10T07:39:49.911Z,596.00
2023-05-10T07:40:50.455Z,593.00
2023-05-10T07:41:50.566Z,590.00
2023-05-10T07:42:49.556Z,585.00
2023-05-10T07:43:49.707Z,581.00
2023-05-10T07:44:49.404Z,577.00
2023-05-10T07:45:49.212Z,569.00
2023-05-10T07:46:49.071Z,571.00
2023-05-10T07:47:48.998Z,571.00
2023-05-10T07:48:48.896Z,569.00
2023-05-10T07:49:50.538Z,571.00
2023-05-10T07:50:49.514Z,569.00
2023-05-10T07:51:50.511Z,568.00
2023-05-10T07:52:48.739Z,566.00
2023-05-10T07:53:48.675Z,564.00
2023-05-10T07:54:50.492Z,560.00
2023-05-10T07:55:48.389Z,556.00
2023-05-10T07:56:48.367Z,556.00
2023-05-10T07:57:48.146Z,550.00
2023-05-10T07:58:48.021Z,547.00
2023-05-10T07:59:47.897Z,546.00
2023-05-10T08:00:50.553Z,544.00
2023-05-10T08:01:47.694Z,543.00
2023-05-10T08:02:47.700Z,544.00
2023-05-10T08:03:48.176Z,547.00
2023-05-10T08:04:48.448Z,547.00
2023-05-10T08:05:47.357Z,547.00
2023-05-10T08:06:47.318Z,544.00
2023-05-10T08:07:50.025Z,545.00
2023-05-10T08:08:47.130Z,549.00
2023-05-10T08:09:47.586Z,550.00
2023-05-10T08:10:46.983Z,558.00
2023-05-10T08:11:46.755Z,585.00
2023-05-10T08:12:46.628Z,580.00
2023-05-10T08:13:46.525Z,583.00
2023-05-10T08:14:46.396Z,633.00
2023-05-10T08:15:46.297Z,630.00
2023-05-10T08:16:46.150Z,652.00
2023-05-10T08:17:46.033Z,710.00
2023-05-10T08:18:46.001Z,779.00
2023-05-10T08:19:45.776Z,816.00
2023-05-10T08:20:46.667Z,851.00
2023-05-10T08:21:45.559Z,790.00
2023-05-10T08:22:45.498Z,794.00
2023-05-10T08:23:45.352Z,784.00
2023-05-10T08:24:45.142Z,777.00
2023-05-10T08:25:45.101Z,794.00
2023-05-10T08:26:44.904Z,793.00
2023-05-10T08:27:44.954Z,702.00
2023-05-10T08:28:44.803Z,690.00
2023-05-10T08:29:50.182Z,630.00
2023-05-10T08:30:45.549Z,621.00
2023-05-10T08:31:44.600Z,618.00
2023-05-10T08:32:44.358Z,612.00
2023-05-10T08:33:44.885Z,607.00
2023-05-10T08:34:44.114Z,602.00
2023-05-10T08:35:43.948Z,598.00
2023-05-10T08:36:43.832Z,594.00
2023-05-10T08:37:43.708Z,580.00
2023-05-10T08:38:44.599Z,579.00
2023-05-10T08:39:44.462Z,578.00
2023-05-10T08:40:43.343Z,575.00
2023-05-10T08:41:43.281Z,577.00
2023-05-10T08:42:43.092Z,578.00
2023-05-10T08:43:42.980Z,583.00
2023-05-10T08:44:49.435Z,582.00
2023-05-10T08:45:42.776Z,579.00
2023-05-10T08:46:42.688Z,573.00
2023-05-10T08:47:42.606Z,570.00
2023-05-10T08:48:43.390Z,569.00
2023-05-10T08:49:42.293Z,566.00
2023-05-10T08:50:50.080Z,565.00
2023-05-10T08:51:43.811Z,561.00
2023-05-10T08:52:41.979Z,557.00
2023-05-10T08:53:41.831Z,554.00
2023-05-10T08:54:41.699Z,553.00
2023-05-10T08:55:42.106Z,550.00
2023-05-10T08:56:43.030Z,547.00
2023-05-10T08:57:41.420Z,547.00
2023-05-10T08:58:41.235Z,545.00
2023-05-10T08:59:41.127Z,546.00
2023-05-10T09:00:42.012Z,543.00
2023-05-10T09:01:41.062Z,543.00
2023-05-10T09:02:43.572Z,543.00
2023-05-10T09:03:40.711Z,543.00
2023-05-10T09:04:40.582Z,549.00
2023-05-10T09:05:40.401Z,550.00
2023-05-10T09:06:40.287Z,554.00
2023-05-10T09:07:41.148Z,564.00
2023-05-10T09:08:40.046Z,570.00
2023-05-10T09:09:39.908Z,570.00
2023-05-10T09:10:39.789Z,573.00
2023-05-10T09:11:40.501Z,578.00
2023-05-10T09:12:40.746Z,581.00
2023-05-10T09:13:39.405Z,590.00
2023-05-10T09:14:39.437Z,605.00
2023-05-10T09:15:39.182Z,626.00
2023-05-10T09:16:39.088Z,666.00
2023-05-10T09:17:38.968Z,692.00
2023-05-10T09:18:38.933Z,747.00
2023-05-10T09:19:40.512Z,776.00
2023-05-10T09:20:38.683Z,878.00
2023-05-10T09:21:38.605Z,890.00
2023-05-10T09:22:39.508Z,959.00
2023-05-10T09:23:38.485Z,963.00
2023-05-10T09:24:38.416Z,955.00
2023-05-10T09:25:38.515Z,966.00
2023-05-10T09:26:38.311Z,966.00
2023-05-10T09:27:38.220Z,962.00
2023-05-10T09:28:38.150Z,960.00
2023-05-10T09:29:38.171Z,960.00
2023-05-10T09:30:39.196Z,955.00
2023-05-10T09:31:39.731Z,950.00
2023-05-10T09:32:37.942Z,945.00
2023-05-10T09:33:38.577Z,890.00
2023-05-10T09:34:38.443Z,908.00
2023-05-10T09:35:42.672Z,916.00
2023-05-10T09:36:38.592Z,920.00
2023-05-10T09:37:37.539Z,924.00
2023-05-10T09:38:37.362Z,932.00
2023-05-10T09:39:38.188Z,936.00
2023-05-10T09:40:38.002Z,942.00
2023-05-10T09:41:36.930Z,957.00
2023-05-10T09:42:39.540Z,964.00
2023-05-10T09:43:37.670Z,962.00
2023-05-10T09:44:37.470Z,958.00
2023-05-10T09:45:38.511Z,957.00
2023-05-10T09:46:36.517Z,960.00
2023-05-10T09:47:36.434Z,961.00
2023-05-10T09:48:36.358Z,960.00
2023-05-10T09:49:36.250Z,1008.00
2023-05-10T09:50:36.201Z,966.00
2023-05-10T09:51:36.916Z,927.00
2023-05-10T09:52:41.095Z,922.00
2023-05-10T09:53:35.951Z,933.00
2023-05-10T09:54:35.822Z,939.00
2023-05-10T09:55:35.728Z,949.00
2023-05-10T09:56:35.573Z,963.00
2023-05-10T09:57:35.467Z,966.00
2023-05-10T09:58:36.004Z,965.00
2023-05-10T09:59:35.177Z,963.00
2023-05-10T10:00:35.075Z,962.00
2023-05-10T10:01:35.037Z,957.00
2023-05-10T10:02:35.015Z,948.00
2023-05-10T10:03:34.869Z,938.00
2023-05-10T10:04:34.845Z,926.00
2023-05-10T10:05:34.773Z,921.00
2023-05-10T10:06:34.668Z,922.00
2023-05-10T10:07:34.596Z,922.00
2023-05-10T10:08:34.547Z,921.00
2023-05-10T10:09:34.469Z,981.00
2023-05-10T10:10:34.449Z,979.00
2023-05-10T10:11:34.349Z,968.00
2023-05-10T10:12:34.287Z,963.00
2023-05-10T10:13:34.223Z,884.00
2023-05-10T10:14:34.159Z,882.00
2023-05-10T10:15:34.548Z,974.00
2023-05-10T10:16:34.047Z,995.00
2023-05-10T10:17:33.972Z,980.00
2023-05-10T10:18:34.011Z,915.00
2023-05-10T10:19:33.801Z,949.00
2023-05-10T10:20:33.750Z,968.00
2023-05-10T10:21:33.675Z,963.00
2023-05-10T10:22:33.598Z,962.00
2023-05-10T10:23:33.541Z,962.00
2023-05-10T10:24:33.493Z,970.00
2023-05-10T10:25:33.409Z,975.00
2023-05-10T10:26:33.327Z,978.00
2023-05-10T10:27:33.252Z,981.00
2023-05-10T10:28:33.183Z,982.00
2023-05-10T10:29:33.105Z,980.00
2023-05-10T10:30:33.051Z,1037.00
2023-05-10T10:31:33.008Z,1020.00
2023-05-10T10:32:32.932Z,1020.00
2023-05-10T10:33:32.846Z,1017.00
2023-05-10T10:34:32.757Z,925.00
2023-05-10T10:35:32.725Z,905.00
2023-05-10T10:36:32.637Z,946.00
2023-05-10T10:37:32.535Z,951.00
2023-05-10T10:38:32.466Z,962.00
2023-05-10T10:39:32.392Z,972.00
2023-05-10T10:40:34.636Z,986.00
2023-05-10T10:41:32.205Z,994.00
2023-05-10T10:42:33.070Z,997.00
2023-05-10T10:43:31.954Z,1005.00
2023-05-10T10:44:31.868Z,1013.00
2023-05-10T10:45:31.703Z,1015.00
2023-05-10T10:46:31.645Z,1012.00
2023-05-10T10:47:31.493Z,1006.00
2023-05-10T10:48:31.365Z,1001.00
2023-05-10T10:49:31.210Z,1001.00
2023-05-10T10:50:31.103Z,1001.00
2023-05-10T10:51:30.989Z,1008.00
2023-05-10T10:52:30.929Z,1010.00
2023-05-10T10:53:30.737Z,1013.00
2023-05-10T10:54:30.629Z,1013.00
2023-05-10T10:55:30.526Z,1008.00
2023-05-10T10:56:30.458Z,1006.00
2023-05-10T10:57:30.385Z,1006.00
2023-05-10T10:58:30.301Z,1008.00
2023-05-10T10:59:30.241Z,1006.00
2023-05-10T11:00:30.214Z,1003.00
2023-05-10T11:01:30.289Z,1002.00
2023-05-10T11:02:31.359Z,999.00
2023-05-10T11:03:30.043Z,997.00
2023-05-10T11:04:30.008Z,998.00
2023-05-10T11:05:29.914Z,995.00
2023-05-10T11:06:29.830Z,988.00
2023-05-10T11:07:29.786Z,982.00
2023-05-10T11:08:29.748Z,981.00
2023-05-10T11:09:29.606Z,986.00
2023-05-10T11:10:29.548Z,989.00
2023-05-10T11:11:29.475Z,990.00
2023-05-10T11:12:29.385Z,993.00
2023-05-10T11:13:29.314Z,992.00
2023-05-10T11:14:29.245Z,995.00
2023-05-10T11:15:29.187Z,1004.00
2023-05-10T11:16:29.149Z,1015.00
2023-05-10T11:17:29.114Z,1021.00
2023-05-10T11:18:28.968Z,1026.00
2023-05-10T11:19:28.853Z,1037.00
2023-05-10T11:20:28.797Z,1056.00
2023-05-10T11:21:28.873Z,1079.00
2023-05-10T11:22:28.643Z,1103.00
2023-05-10T11:23:28.561Z,1110.00
2023-05-10T11:24:28.489Z,1114.00
2023-05-10T11:25:28.417Z,1116.00
2023-05-10T11:26:28.332Z,1119.00
2023-05-10T11:27:28.260Z,1124.00
2023-05-10T11:28:28.195Z,1131.00
2023-05-10T11:29:28.127Z,1139.00
2023-05-10T11:30:28.041Z,1149.00
2023-05-10T11:31:28.086Z,1157.00
2023-05-10T11:32:27.914Z,1162.00
2023-05-10T11:33:27.816Z,1222.00
2023-05-10T11:34:27.731Z,1231.00
2023-05-10T11:35:27.666Z,1236.00
2023-05-10T11:36:27.601Z,1239.00
2023-05-10T11:37:27.511Z,1237.00
2023-05-10T11:38:27.458Z,1232.00
2023-05-10T11:39:27.376Z,1224.00
2023-05-10T11:40:27.293Z,1189.00
2023-05-10T11:41:27.227Z,1199.00
2023-05-10T11:42:27.144Z,1206.00
2023-05-10T11:43:27.083Z,1201.00
2023-05-10T11:44:27.009Z,1210.00
2023-05-10T11:45:26.924Z,1208.00
2023-05-10T11:46:26.914Z,1200.00
2023-05-10T11:47:26.820Z,1194.00
2023-05-10T11:48:26.715Z,1186.00
2023-05-10T11:49:26.643Z,1180.00
2023-05-10T11:50:26.559Z,1177.00
2023-05-10T11:51:26.508Z,1172.00
2023-05-10T11:52:27.015Z,1166.00
2023-05-10T11:53:26.356Z,1162.00
2023-05-10T11:54:26.264Z,1161.00
2023-05-10T11:55:26.192Z,1163.00
2023-05-10T11:56:26.124Z,1167.00
2023-05-10T11:57:26.052Z,1165.00
2023-05-10T11:58:25.966Z,1162.00
2023-05-10T11:59:25.890Z,1159.00
2023-05-10T12:00:25.820Z,1157.00
2023-05-10T12:01:25.746Z,1153.00
2023-05-10T12:02:25.760Z,1155.00
2023-05-10T12:03:25.754Z,1149.00
2023-05-10T12:04:25.544Z,1150.00
2023-05-10T12:05:25.434Z,1146.00
2023-05-10T12:06:25.368Z,1141.00
2023-05-10T12:07:25.292Z,1171.00
2023-05-10T12:08:25.226Z,1152.00
2023-05-10T12:09:39.434Z,1154.00
2023-05-10T12:10:26.042Z,1151.00
2023-05-10T12:11:24.894Z,1141.00
2023-05-10T12:12:24.775Z,1135.00
2023-05-10T12:13:24.668Z,1129.00
2023-05-10T12:14:24.542Z,1128.00
2023-05-10T12:15:24.489Z,1126.00
2023-05-10T12:16:24.381Z,1125.00
2023-05-10T12:17:24.200Z,1119.00
2023-05-10T12:18:24.078Z,1116.00
2023-05-10T12:19:23.932Z,1116.00
2023-05-10T12:20:23.832Z,1120.00
2023-05-10T12:21:23.702Z,1127.00
2023-05-10T12:22:23.597Z,1133.00
2023-05-10T12:23:23.458Z,1134.00
2023-05-10T12:24:23.365Z,1135.00
2023-05-10T12:25:23.307Z,1137.00
2023-05-10T12:26:23.200Z,1136.00
2023-05-10T12:27:23.105Z,1136.00
2023-05-10T12:28:23.024Z,1134.00
2023-05-10T12:29:22.933Z,1133.00
2023-05-10T12:30:22.854Z,1125.00
2023-05-10T12:31:22.866Z,1118.00
2023-05-10T12:32:22.700Z,1110.00
2023-05-10T12:33:22.701Z,1109.00
2023-05-10T12:34:22.533Z,1109.00
2023-05-10T12:35:22.446Z,1108.00
2023-05-10T12:36:22.371Z,1109.00
2023-05-10T12:37:22.286Z,1109.00
2023-05-10T12:38:22.204Z,1108.00
2023-05-10T12:39:22.126Z,1114.00
2023-05-10T12:40:22.047Z,1119.00
2023-05-10T12:41:22.151Z,1148.00
2023-05-10T12:42:21.886Z,1153.00
2023-05-10T12:43:21.818Z,1237.00
2023-05-10T12:44:21.764Z,1226.00
2023-05-10T12:45:21.653Z,1229.00
2023-05-10T12:46:21.597Z,1239.00
2023-05-10T12:47:21.505Z,1221.00
2023-05-10T12:48:21.435Z,1220.00
2023-05-10T12:49:21.360Z,1207.00
2023-05-10T12:50:21.266Z,1168.00
2023-05-10T12:51:21.261Z,1181.00
2023-05-10T12:52:21.120Z,1179.00
2023-05-10T12:53:21.038Z,1178.00
2023-05-10T12:54:20.974Z,1180.00
2023-05-10T12:55:20.879Z,1179.00
2023-05-10T12:56:20.787Z,1182.00
2023-05-10T12:57:20.707Z,1185.00
2023-05-10T12:58:34.313Z,1184.00
2023-05-10T12:59:21.499Z,1182.00
2023-05-10T13:00:20.378Z,1184.00
2023-05-10T13:01:20.302Z,1184.00
2023-05-10T13:02:20.154Z,1178.00
2023-05-10T13:03:20.027Z,1177.00
2023-05-10T13:04:19.933Z,1177.00
2023-05-10T13:05:19.783Z,1177.00
2023-05-10T13:06:19.651Z,1175.00
2023-05-10T13:07:19.539Z,1171.00
2023-05-10T13:08:19.409Z,1167.00
2023-05-10T13:09:19.291Z,1165.00
2023-05-10T13:10:19.496Z,1166.00
2023-05-10T13:11:19.059Z,1164.00
2023-05-10T13:12:18.927Z,1166.00
2023-05-10T13:13:18.813Z,1165.00
2023-05-10T13:14:18.686Z,1161.00
2023-05-10T13:15:18.578Z,1163.00
2023-05-10T13:16:18.556Z,1161.00
2023-05-10T13:17:18.543Z,1163.00
2023-05-10T13:18:18.413Z,1163.00
2023-05-10T13:19:18.365Z,1162.00
2023-05-10T13:20:18.408Z,1161.00
2023-05-10T13:21:18.106Z,1155.00
2023-05-10T13:22:25.606Z,1150.00
2023-05-10T13:23:18.906Z,1146.00
2023-05-10T13:24:17.765Z,1146.00
2023-05-10T13:25:17.658Z,1142.00
2023-05-10T13:26:17.518Z,1141.00
2023-05-10T13:27:17.401Z,1134.00
2023-05-10T13:28:17.291Z,1123.00
2023-05-10T13:29:18.014Z,1115.00
2023-05-10T13:30:18.271Z,1112.00
2023-05-10T13:31:17.004Z,1111.00
2023-05-10T13:32:16.783Z,1109.00
2023-05-10T13:33:16.663Z,1106.00
2023-05-10T13:34:16.548Z,1106.00
2023-05-10T13:35:16.462Z,1102.00
2023-05-10T13:36:16.290Z,1093.00
2023-05-10T13:37:16.170Z,1092.00
2023-05-10T13:38:16.061Z,1092.00
2023-05-10T13:39:16.012Z,1089.00
2023-05-10T13:40:16.046Z,1083.00
2023-05-10T13:41:15.825Z,1079.00
2023-05-10T13:42:15.746Z,1075.00
2023-05-10T13:43:15.659Z,1069.00
2023-05-10T13:44:15.598Z,1065.00
2023-05-10T13:45:15.885Z,1064.00
2023-05-10T13:46:15.460Z,1061.00
2023-05-10T13:47:15.336Z,1064.00
2023-05-10T13:48:15.257Z,1063.00
2023-05-10T13:49:15.191Z,1057.00
2023-05-10T13:50:15.116Z,1055.00
2023-05-10T13:51:15.046Z,1048.00
2023-05-10T13:52:14.957Z,1048.00
2023-05-10T13:53:14.883Z,1044.00
2023-05-10T13:54:14.882Z,1043.00
2023-05-10T13:55:14.725Z,1044.00
2023-05-10T13:56:14.645Z,1045.00
2023-05-10T13:57:14.571Z,1042.00
2023-05-10T13:58:14.474Z,1041.00
2023-05-10T13:59:14.395Z,1042.00
2023-05-10T14:00:14.315Z,1040.00
2023-05-10T14:01:14.323Z,1038.00
2023-05-10T14:02:14.221Z,1037.00
2023-05-10T14:03:14.111Z,1038.00
2023-05-10T14:04:14.010Z,1036.00
2023-05-10T14:05:14.136Z,1037.00
2023-05-10T14:06:13.853Z,1034.00
2023-05-10T14:07:13.777Z,1031.00
2023-05-10T14:08:13.715Z,1034.00
2023-05-10T14:09:13.621Z,1035.00
2023-05-10T14:10:13.548Z,1033.00
2023-05-10T14:11:13.466Z,1037.00
2023-05-10T14:12:13.392Z,1038.00
2023-05-10T14:13:13.393Z,1028.00
2023-05-10T14:14:13.252Z,1027.00
2023-05-10T14:15:13.159Z,1015.00
2023-05-10T14:16:13.104Z,1003.00
2023-05-10T14:17:13.095Z,986.00
2023-05-10T14:18:12.924Z,978.00
2023-05-10T14:19:12.854Z,961.00
2023-05-10T14:20:12.789Z,947.00
2023-05-10T14:21:12.713Z,934.00
2023-05-10T14:22:12.648Z,927.00
2023-05-10T14:23:12.606Z,920.00
2023-05-10T14:24:12.507Z,916.00
2023-05-10T14:25:12.429Z,911.00
2023-05-10T14:26:12.347Z,915.00
2023-05-10T14:27:12.278Z,911.00
2023-05-10T14:28:12.252Z,907.00
2023-05-10T14:29:12.757Z,860.00
2023-05-10T14:30:12.077Z,866.00
2023-05-10T14:31:11.997Z,867.00
2023-05-10T14:32:11.968Z,871.00
2023-05-10T14:33:11.873Z,868.00
2023-05-10T14:34:11.770Z,862.00
2023-05-10T14:35:13.988Z,858.00
2023-05-10T14:36:11.568Z,868.00
2023-05-10T14:37:11.458Z,864.00
2023-05-10T14:38:11.333Z,855.00
2023-05-10T14:39:11.206Z,855.00
2023-05-10T14:40:11.071Z,854.00
2023-05-10T14:41:11.970Z,849.00
2023-05-10T14:42:10.829Z,846.00
2023-05-10T14:43:10.672Z,842.00
2023-05-10T14:44:10.555Z,838.00
2023-05-10T14:45:10.416Z,838.00
2023-05-10T14:46:10.332Z,827.00
2023-05-10T14:47:12.057Z,818.00
2023-05-10T14:48:10.025Z,815.00
2023-05-10T14:49:09.898Z,816.00
2023-05-10T14:50:09.775Z,817.00
2023-05-10T14:51:09.666Z,813.00
2023-05-10T14:52:09.593Z,808.00
2023-05-10T14:53:09.525Z,804.00
2023-05-10T14:54:09.465Z,807.00
2023-05-10T14:55:09.391Z,798.00
2023-05-10T14:56:09.326Z,794.00
2023-05-10T14:57:09.258Z,792.00
2023-05-10T14:58:09.182Z,799.00
2023-05-10T14:59:09.119Z,794.00
2023-05-10T15:00:09.048Z,785.00
2023-05-10T15:01:09.001Z,776.00
2023-05-10T15:02:08.924Z,775.00
2023-05-10T15:03:08.909Z,777.00
2023-05-10T15:04:08.767Z,764.00
2023-05-10T15:05:08.693Z,766.00
2023-05-10T15:06:08.630Z,770.00
2023-05-10T15:07:08.562Z,763.00
2023-05-10T15:08:08.506Z,763.00
2023-05-10T15:09:08.443Z,760.00
2023-05-10T15:10:08.393Z,760.00
2023-05-10T15:11:08.334Z,760.00
2023-05-10T15:12:08.280Z,753.00
2023-05-10T15:13:08.192Z,749.00
2023-05-10T15:14:08.133Z,756.00
2023-05-10T15:15:08.059Z,754.00
2023-05-10T15:16:08.036Z,760.00
2023-05-10T15:17:07.945Z,758.00
2023-05-10T15:18:07.956Z,758.00
2023-05-10T15:19:07.957Z,759.00
2023-05-10T15:20:07.756Z,756.00
2023-05-10T15:21:07.701Z,757.00
2023-05-10T15:22:07.652Z,760.00
2023-05-10T15:23:07.587Z,767.00
2023-05-10T15:24:07.511Z,770.00
2023-05-10T15:25:07.452Z,776.00
2023-05-10T15:26:07.431Z,780.00
2023-05-10T15:27:07.314Z,783.00
2023-05-10T15:28:07.259Z,785.00
2023-05-10T15:29:07.191Z,786.00
2023-05-10T15:30:07.134Z,788.00
2023-05-10T15:31:07.095Z,788.00
2023-05-10T15:32:07.010Z,789.00
2023-05-10T15:33:07.032Z,792.00
2023-05-10T15:34:06.875Z,791.00
2023-05-10T15:35:06.815Z,795.00
2023-05-10T15:36:06.748Z,794.00
2023-05-10T15:37:06.678Z,797.00
2023-05-10T15:38:06.619Z,795.00
2023-05-10T15:39:06.551Z,798.00
2023-05-10T15:40:06.516Z,800.00
2023-05-10T15:41:06.412Z,800.00
2023-05-10T15:42:06.359Z,803.00
2023-05-10T15:43:06.300Z,808.00
2023-05-10T15:44:06.232Z,809.00
2023-05-10T15:45:06.167Z,811.00
2023-05-10T15:46:06.116Z,814.00
2023-05-10T15:47:06.128Z,817.00
2023-05-10T15:48:06.075Z,821.00
2023-05-10T15:49:05.917Z,826.00
2023-05-10T15:50:05.844Z,829.00
2023-05-10T15:51:05.782Z,830.00
2023-05-10T15:52:05.711Z,833.00
2023-05-10T15:53:05.673Z,838.00
2023-05-10T15:54:07.508Z,839.00
2023-05-10T15:55:05.633Z,840.00
2023-05-10T15:56:05.568Z,844.00
2023-05-10T15:57:05.514Z,844.00
2023-05-10T15:58:05.433Z,845.00
2023-05-10T15:59:05.360Z,847.00
2023-05-10T16:00:05.288Z,850.00
2023-05-10T16:01:05.313Z,850.00
2023-05-10T16:02:05.180Z,853.00
2023-05-10T16:03:05.220Z,857.00
2023-05-10T16:04:05.012Z,857.00
2023-05-10T16:05:04.964Z,861.00
2023-05-10T16:06:04.874Z,863.00
2023-05-10T16:07:04.832Z,864.00
2023-05-10T16:08:04.736Z,865.00
2023-05-10T16:09:04.674Z,871.00
2023-05-10T16:10:04.580Z,869.00
2023-05-10T16:11:04.527Z,870.00
2023-05-10T16:12:04.441Z,869.00
2023-05-10T16:13:04.377Z,871.00
2023-05-10T16:14:05.672Z,871.00
2023-05-10T16:15:04.163Z,872.00
2023-05-10T16:16:04.084Z,873.00
2023-05-10T16:17:03.972Z,873.00
2023-05-10T16:18:03.884Z,876.00
2023-05-10T16:19:03.716Z,876.00
2023-05-10T16:20:03.597Z,875.00
2023-05-10T16:21:03.399Z,874.00
2023-05-10T16:22:03.264Z,878.00
2023-05-10T16:23:03.142Z,880.00
2023-05-10T16:24:03.022Z,881.00
2023-05-10T16:25:02.882Z,877.00
2023-05-10T16:26:02.771Z,877.00
2023-05-10T16:27:02.630Z,875.00
2023-05-10T16:28:02.516Z,875.00
2023-05-10T16:29:02.389Z,875.00
2023-05-10T16:30:02.320Z,872.00
2023-05-10T16:31:02.176Z,873.00
2023-05-10T16:32:02.002Z,870.00
2023-05-10T16:33:01.921Z,871.00
2023-05-10T16:34:01.749Z,872.00
2023-05-10T16:35:01.679Z,872.00
2023-05-10T16:36:01.487Z,870.00
2023-05-10T16:37:01.374Z,868.00
2023-05-10T16:38:01.275Z,865.00
2023-05-10T16:39:01.124Z,864.00
2023-05-10T16:40:00.996Z,864.00
2023-05-10T16:41:00.855Z,862.00
2023-05-10T16:42:00.735Z,862.00
2023-05-10T16:43:00.609Z,863.00
2023-05-10T16:44:00.473Z,865.00
2023-05-10T16:45:00.342Z,865.00
2023-05-10T16:46:00.295Z,868.00
2023-05-10T16:47:00.143Z,867.00
2023-05-10T16:48:00.056Z,867.00
2023-05-10T16:48:59.826Z,867.00
2023-05-10T16:49:59.740Z,870.00
2023-05-10T16:50:59.582Z,869.00
2023-05-10T16:51:59.448Z,868.00
2023-05-10T16:52:59.570Z,868.00
2023-05-10T16:53:59.199Z,868.00
2023-05-10T16:54:59.124Z,869.00
2023-05-10T16:55:59.070Z,870.00
2023-05-10T16:56:59.013Z,871.00
2023-05-10T16:57:58.959Z,870.00
2023-05-10T16:58:58.875Z,868.00
2023-05-10T16:59:58.811Z,867.00
2023-05-10T17:00:58.747Z,864.00
2023-05-10T17:01:58.764Z,864.00
2023-05-10T17:02:58.710Z,866.00
2023-05-10T17:03:58.715Z,866.00
2023-05-10T17:04:58.479Z,869.00
2023-05-10T17:05:58.652Z,863.00
2023-05-10T17:06:58.363Z,861.00
2023-05-10T17:07:58.282Z,859.00
2023-05-10T17:08:58.222Z,861.00
2023-05-10T17:09:58.148Z,861.00
2023-05-10T17:10:58.073Z,863.00
2023-05-10T17:11:58.024Z,862.00
2023-05-10T17:12:58.160Z,857.00
2023-05-10T17:13:57.877Z,858.00
2023-05-10T17:14:57.813Z,857.00
2023-05-10T17:15:57.912Z,857.00
2023-05-10T17:16:57.733Z,858.00
2023-05-10T17:17:57.670Z,860.00
2023-05-10T17:18:57.653Z,862.00
2023-05-10T17:19:57.494Z,860.00
2023-05-10T17:20:57.429Z,860.00
2023-05-10T17:21:57.359Z,858.00
2023-05-10T17:22:57.533Z,857.00
2023-05-10T17:23:57.230Z,858.00
2023-05-10T17:24:57.200Z,856.00
2023-05-10T17:25:58.070Z,854.00
2023-05-10T17:26:57.060Z,853.00
2023-05-10T17:27:56.985Z,855.00
2023-05-10T17:28:56.906Z,858.00
2023-05-10T17:29:56.836Z,857.00
2023-05-10T17:30:56.777Z,853.00
2023-05-10T17:31:56.804Z,850.00
2023-05-10T17:32:56.697Z,851.00
2023-05-10T17:33:56.575Z,849.00
2023-05-10T17:34:56.518Z,848.00
2023-05-10T17:35:56.437Z,847.00
2023-05-10T17:36:56.370Z,846.00
2023-05-10T17:37:56.311Z,847.00
2023-05-10T17:38:56.235Z,847.00
2023-05-10T17:39:56.173Z,848.00
2023-05-10T17:40:56.094Z,850.00
2023-05-10T17:41:56.034Z,853.00
2023-05-10T17:42:56.054Z,851.00
2023-05-10T17:43:55.906Z,852.00
2023-05-10T17:44:55.836Z,850.00
2023-05-10T17:45:55.828Z,848.00
2023-05-10T17:46:55.702Z,849.00
2023-05-10T17:47:55.693Z,848.00
2023-05-10T17:48:55.575Z,847.00
2023-05-10T17:49:55.500Z,849.00